createdAt,value
2022-12-18T00:02:20.895Z,95336.13
2022-12-18T00:04:47.322Z,95341.13
2022-12-18T00:07:13.719Z,95339.22
2022-12-18T00:09:40.675Z,95344.22
2022-12-18T00:14:42.275Z,95345.72
2022-12-18T00:17:08.698Z,95342.28
2022-12-18T00:19:36.895Z,95348.31
2022-12-18T00:22:03.333Z,95357.19
2022-12-18T00:24:29.748Z,95352.47
2022-12-18T00:26:56.155Z,95350.13
2022-12-18T00:29:22.574Z,95348.72
2022-12-18T00:31:49.094Z,95353.38
2022-12-18T00:34:15.523Z,95352.53
2022-12-18T00:36:41.949Z,95353.56
2022-12-18T00:39:08.430Z,95361.34
2022-12-18T00:41:34.848Z,95370.81
2022-12-18T00:44:01.265Z,95372.38
2022-12-18T00:46:27.663Z,95371.38
2022-12-18T00:48:54.053Z,95363.13
2022-12-18T00:51:20.487Z,95361.91
2022-12-18T00:53:46.911Z,95361.53
2022-12-18T00:56:13.319Z,95369.91
2022-12-18T00:58:39.746Z,95371.28
2022-12-18T01:01:06.162Z,95373.63
2022-12-18T01:03:32.633Z,95373.34
2022-12-18T01:05:59.170Z,95370.47
2022-12-18T01:08:25.576Z,95369.34
2022-12-18T01:10:52.009Z,95377.63
2022-12-18T01:13:18.502Z,95380.03
2022-12-18T01:15:44.958Z,95380.69
2022-12-18T01:18:11.371Z,95384.88
2022-12-18T01:20:37.791Z,95389.03
2022-12-18T01:23:04.196Z,95392.38
2022-12-18T01:25:30.643Z,95398.31
2022-12-18T01:27:57.102Z,95389.66
2022-12-18T01:30:23.526Z,95391.34
2022-12-18T01:32:49.952Z,95392.84
2022-12-18T01:35:16.389Z,95399.97
2022-12-18T01:37:42.836Z,95392.94
2022-12-18T01:40:09.259Z,95400.06
2022-12-18T01:42:35.695Z,95413.06
2022-12-18T01:45:02.143Z,95411.50
2022-12-18T01:47:28.570Z,95415.31
2022-12-18T01:49:54.983Z,95416.78
2022-12-18T01:52:21.383Z,95424.75
2022-12-18T01:54:47.823Z,95415.47
2022-12-18T01:57:14.244Z,95425.31
2022-12-18T01:59:40.662Z,95422.91
2022-12-18T02:02:07.799Z,95422.00
2022-12-18T02:04:34.350Z,95419.88
2022-12-18T02:07:00.794Z,95429.13
2022-12-18T02:09:27.329Z,95431.25
2022-12-18T02:11:53.757Z,95436.06
2022-12-18T02:14:20.199Z,95433.38
2022-12-18T02:16:46.772Z,95433.63
2022-12-18T02:19:13.263Z,95436.97
2022-12-18T02:21:39.693Z,95429.63
2022-12-18T02:24:06.131Z,95444.06
2022-12-18T02:26:32.598Z,95448.84
2022-12-18T02:28:59.023Z,95445.78
2022-12-18T02:31:25.440Z,95448.72
2022-12-18T02:33:51.887Z,95451.50
2022-12-18T02:36:18.289Z,95449.25
2022-12-18T02:38:44.723Z,95452.75
2022-12-18T02:41:11.135Z,95456.19
2022-12-18T02:43:37.825Z,95452.75
2022-12-18T02:46:04.675Z,95454.28
2022-12-18T02:48:31.142Z,95453.09
2022-12-18T02:50:57.574Z,95456.50
2022-12-18T02:53:24.015Z,95454.31
2022-12-18T02:55:50.442Z,95461.75
2022-12-18T02:58:16.896Z,95462.13
2022-12-18T03:00:43.311Z,95460.09
2022-12-18T03:03:09.826Z,95462.19
2022-12-18T03:05:36.325Z,95453.75
2022-12-18T03:08:02.814Z,95457.06
2022-12-18T03:10:29.224Z,95461.44
2022-12-18T03:12:55.667Z,95461.56
2022-12-18T03:15:22.085Z,95449.91
2022-12-18T03:17:48.509Z,95445.81
2022-12-18T03:20:14.932Z,95453.34
2022-12-18T03:22:41.365Z,95457.91
2022-12-18T03:25:07.806Z,95458.53
2022-12-18T03:27:34.289Z,95459.00
2022-12-18T03:30:00.711Z,95466.81
2022-12-18T03:32:27.147Z,95465.00
2022-12-18T03:34:53.553Z,95452.41
2022-12-18T03:37:19.949Z,95455.09
2022-12-18T03:39:46.397Z,95459.38
2022-12-18T03:42:12.843Z,95459.22
2022-12-18T03:44:39.311Z,95451.06
2022-12-18T03:47:05.749Z,95449.47
2022-12-18T03:49:32.179Z,95463.28
2022-12-18T03:51:58.612Z,95460.50
2022-12-18T03:54:25.041Z,95458.84
2022-12-18T03:56:51.472Z,95457.81
2022-12-18T03:59:17.984Z,95467.00
2022-12-18T04:01:44.457Z,95468.75
2022-12-18T04:04:11.110Z,95468.03
2022-12-18T04:06:37.567Z,95460.88
2022-12-18T04:09:04.034Z,95470.72
2022-12-18T04:11:30.453Z,95474.16
2022-12-18T04:13:56.898Z,95469.59
2022-12-18T04:16:23.461Z,95473.97
2022-12-18T04:18:49.898Z,95477.41
2022-12-18T04:21:17.329Z,95474.25
2022-12-18T04:23:43.892Z,95474.63
2022-12-18T04:26:10.322Z,95467.19
2022-12-18T04:28:36.741Z,95474.53
2022-12-18T04:31:03.174Z,95472.75
2022-12-18T04:33:29.644Z,95474.25
2022-12-18T04:35:56.076Z,95479.44
2022-12-18T04:38:22.500Z,95485.00
2022-12-18T04:40:48.944Z,95487.53
2022-12-18T04:43:15.424Z,95488.00
2022-12-18T04:45:41.888Z,95490.84
2022-12-18T04:48:08.316Z,95487.53
2022-12-18T04:50:34.787Z,95495.41
2022-12-18T04:53:01.224Z,95493.84
2022-12-18T04:55:27.651Z,95491.03
2022-12-18T04:57:54.116Z,95494.59
2022-12-18T05:00:20.557Z,95494.75
2022-12-18T05:02:47.056Z,95501.16
2022-12-18T05:05:13.577Z,95493.56
2022-12-18T05:07:40.021Z,95500.78
2022-12-18T05:10:06.477Z,95496.72
2022-12-18T05:12:32.904Z,95502.56
2022-12-18T05:14:59.334Z,95503.75
2022-12-18T05:17:25.745Z,95502.28
2022-12-18T05:19:52.197Z,95502.34
2022-12-18T05:22:18.638Z,95503.75
2022-12-18T05:24:45.245Z,95507.19
2022-12-18T05:27:11.675Z,95511.91
2022-12-18T05:29:38.206Z,95505.59
2022-12-18T05:32:04.621Z,95506.72
2022-12-18T05:34:31.065Z,95510.91
2022-12-18T05:36:57.526Z,95506.34
2022-12-18T05:39:23.954Z,95505.91
2022-12-18T05:41:50.707Z,95510.72
2022-12-18T05:44:17.183Z,95513.78
2022-12-18T05:46:43.733Z,95506.09
2022-12-18T05:49:10.234Z,95508.59
2022-12-18T05:51:36.902Z,95511.19
2022-12-18T05:54:03.306Z,95506.22
2022-12-18T05:56:29.794Z,95509.72
2022-12-18T05:58:56.216Z,95519.19
2022-12-18T06:01:23.892Z,95516.53
2022-12-18T06:03:50.506Z,95519.91
2022-12-18T06:06:17.066Z,95516.19
2022-12-18T06:08:46.447Z,95520.03
2022-12-18T06:11:13.446Z,95530.97
2022-12-18T06:13:40.173Z,95518.22
2022-12-18T06:16:07.020Z,95523.63
2022-12-18T06:18:33.484Z,95531.19
2022-12-18T06:20:59.904Z,95535.06
2022-12-18T06:23:26.354Z,95534.63
2022-12-18T06:25:52.789Z,95537.09
2022-12-18T06:28:19.235Z,95545.94
2022-12-18T06:30:45.772Z,95536.38
2022-12-18T06:33:12.213Z,95550.59
2022-12-18T06:35:38.650Z,95547.72
2022-12-18T06:38:05.107Z,95548.38
2022-12-18T06:40:31.522Z,95557.84
2022-12-18T06:42:57.985Z,95563.88
2022-12-18T06:45:24.448Z,95561.28
2022-12-18T06:47:50.939Z,95559.72
2022-12-18T06:50:17.396Z,95562.22
2022-12-18T06:52:43.829Z,95565.72
2022-12-18T06:55:10.354Z,95568.59
2022-12-18T06:57:36.796Z,95574.97
2022-12-18T07:00:06.964Z,95581.59
2022-12-18T07:02:33.507Z,95583.06
2022-12-18T07:05:00.196Z,95583.81
2022-12-18T07:07:26.696Z,95585.09
2022-12-18T07:09:53.144Z,95584.03
2022-12-18T07:12:19.818Z,95583.63
2022-12-18T07:14:46.379Z,95587.47
2022-12-18T07:17:12.857Z,95583.59
2022-12-18T07:19:39.334Z,95590.63
2022-12-18T07:22:05.786Z,95593.63
2022-12-18T07:24:32.970Z,95590.28
2022-12-18T07:26:59.395Z,95595.19
2022-12-18T07:29:25.797Z,95593.44
2022-12-18T07:31:52.295Z,95592.41
2022-12-18T07:34:18.765Z,95598.28
2022-12-18T07:36:45.193Z,95608.03
2022-12-18T07:39:11.609Z,95603.75
2022-12-18T07:41:40.264Z,95607.63
2022-12-18T07:44:10.182Z,95614.16
2022-12-18T07:46:36.607Z,95617.97
2022-12-18T07:49:03.052Z,95608.75
2022-12-18T07:51:29.490Z,95617.41
2022-12-18T07:53:55.916Z,95622.25
2022-12-18T07:56:27.552Z,95619.00
2022-12-18T07:58:54.880Z,95619.56
2022-12-18T08:01:21.513Z,95620.03
2022-12-18T08:03:48.099Z,95623.03
2022-12-18T08:06:14.694Z,95622.53
2022-12-18T08:08:41.106Z,95628.13
2022-12-18T08:11:07.623Z,95630.44
2022-12-18T08:13:34.061Z,95628.94
2022-12-18T08:16:00.466Z,95636.56
2022-12-18T08:18:26.949Z,95629.09
2022-12-18T08:20:53.393Z,95622.66
2022-12-18T08:23:19.824Z,95628.88
2022-12-18T08:25:46.272Z,95627.78
2022-12-18T08:28:12.682Z,95622.00
2022-12-18T08:30:39.189Z,95625.81
2022-12-18T08:33:05.646Z,95622.28
2022-12-18T08:35:36.440Z,95617.91
2022-12-18T08:38:05.263Z,95626.75
2022-12-18T08:40:31.690Z,95630.00
2022-12-18T08:42:58.115Z,95624.66
2022-12-18T08:45:24.532Z,95629.59
2022-12-18T08:47:50.975Z,95629.50
2022-12-18T08:50:17.396Z,95624.28
2022-12-18T08:52:44.976Z,95630.16
2022-12-18T08:55:12.651Z,95624.75
2022-12-18T08:57:39.110Z,95627.03
2022-12-18T09:00:06.554Z,95616.22
2022-12-18T09:02:33.122Z,95627.28
2022-12-18T09:04:59.613Z,95632.00
2022-12-18T09:07:26.032Z,95629.00
2022-12-18T09:09:52.461Z,95631.31
2022-12-18T09:12:18.928Z,95636.97
2022-12-18T09:14:45.389Z,95641.88
2022-12-18T09:17:11.892Z,95640.84
2022-12-18T09:19:38.341Z,95642.22
2022-12-18T09:22:04.764Z,95644.53
2022-12-18T09:24:31.164Z,95636.41
2022-12-18T09:26:58.212Z,95636.84
2022-12-18T09:29:24.691Z,95642.66
2022-12-18T09:31:51.107Z,95634.56
2022-12-18T09:34:17.538Z,95631.31
2022-12-18T09:36:43.953Z,95642.72
2022-12-18T09:39:10.399Z,95639.38
2022-12-18T09:41:36.820Z,95640.84
2022-12-18T09:44:03.225Z,95638.44
2022-12-18T09:46:29.689Z,95648.16
2022-12-18T09:48:56.167Z,95649.28
2022-12-18T09:51:22.581Z,95648.03
2022-12-18T09:53:49.069Z,95648.69
2022-12-18T09:56:15.500Z,95644.91
2022-12-18T09:58:42.211Z,95641.97
2022-12-18T10:01:08.939Z,95646.91
2022-12-18T10:03:35.366Z,95651.50
2022-12-18T10:06:01.830Z,95651.38
2022-12-18T10:08:28.258Z,95646.16
2022-12-18T10:10:54.791Z,95646.59
2022-12-18T10:13:21.249Z,95644.81
2022-12-18T10:15:50.308Z,95645.66
2022-12-18T10:18:21.662Z,95642.00
2022-12-18T10:20:48.563Z,95626.34
2022-12-18T10:23:14.986Z,95626.00
2022-12-18T10:25:41.447Z,95628.41
2022-12-18T10:28:07.870Z,95617.63
2022-12-18T10:30:34.559Z,95615.66
2022-12-18T10:33:02.561Z,95619.88
2022-12-18T10:35:32.917Z,95618.88
2022-12-18T10:38:22.396Z,95616.16
2022-12-18T10:44:06.471Z,95621.72
2022-12-18T10:46:39.282Z,95622.66
2022-12-18T10:49:08.231Z,95624.59
2022-12-18T10:51:35.122Z,95624.81
2022-12-18T10:54:06.809Z,95620.72
2022-12-18T10:56:34.473Z,95623.72
2022-12-18T10:59:03.078Z,95625.41
2022-12-18T11:01:33.976Z,95624.22
2022-12-18T11:04:04.552Z,95626.75
2022-12-18T11:06:32.306Z,95632.47
2022-12-18T11:09:09.362Z,95624.00
2022-12-18T11:11:40.727Z,95629.97
2022-12-18T11:14:07.663Z,95625.06
2022-12-18T11:19:30.780Z,95615.53
2022-12-18T11:21:58.233Z,95616.22
2022-12-18T11:24:27.003Z,95616.13
2022-12-18T11:26:59.321Z,95620.66
2022-12-18T11:29:27.128Z,95614.44
2022-12-18T11:34:39.314Z,95614.94
2022-12-18T11:37:06.997Z,95602.22
2022-12-18T11:39:34.533Z,95605.59
2022-12-18T11:42:02.126Z,95606.00
2022-12-18T11:44:28.881Z,95604.88
2022-12-18T11:46:56.508Z,95605.50
2022-12-18T11:49:24.043Z,95599.31
2022-12-18T11:51:51.690Z,95595.13
2022-12-18T11:54:20.392Z,95588.97
2022-12-18T11:56:50.045Z,95593.38
2022-12-18T11:59:22.177Z,95592.25
2022-12-18T12:01:49.198Z,95579.13
2022-12-18T12:04:17.816Z,95582.38
2022-12-18T12:06:47.082Z,95571.22
2022-12-18T12:09:14.958Z,95575.47
2022-12-18T12:11:42.588Z,95572.56
2022-12-18T12:14:10.181Z,95572.31
2022-12-18T12:16:37.139Z,95576.53
2022-12-18T12:19:04.378Z,95579.16
2022-12-18T12:21:31.978Z,95572.22
2022-12-18T12:23:59.812Z,95569.41
2022-12-18T12:26:27.353Z,95557.91
2022-12-18T12:28:55.146Z,95560.19
2022-12-18T12:31:24.157Z,95558.22
2022-12-18T12:33:51.348Z,95556.75
2022-12-18T12:36:18.138Z,95555.06
2022-12-18T12:38:50.017Z,95557.47
2022-12-18T12:41:19.256Z,95551.19
2022-12-18T12:43:50.561Z,95554.31
2022-12-18T12:46:19.564Z,95546.66
2022-12-18T12:48:48.092Z,95558.94
2022-12-18T12:51:15.691Z,95548.88
2022-12-18T12:53:44.674Z,95547.59
2022-12-18T12:56:12.891Z,95549.84
2022-12-18T12:58:39.510Z,95545.56
2022-12-18T13:01:08.165Z,95539.78
2022-12-18T13:03:35.687Z,95527.75
2022-12-18T13:06:02.292Z,95536.78
2022-12-18T13:08:31.111Z,95534.66
2022-12-18T13:11:00.600Z,95526.34
2022-12-18T13:13:29.152Z,95528.72
2022-12-18T13:15:56.706Z,95529.13
2022-12-18T13:18:24.294Z,95525.09
2022-12-18T13:20:55.180Z,95529.34
2022-12-18T13:23:25.281Z,95533.66
2022-12-18T13:25:53.083Z,95522.22
2022-12-18T13:28:20.693Z,95525.44
2022-12-18T13:30:48.316Z,95530.69
2022-12-18T13:33:15.888Z,95527.44
2022-12-18T13:35:44.531Z,95527.34
2022-12-18T13:38:11.557Z,95521.28
2022-12-18T13:40:38.136Z,95524.81
2022-12-18T13:43:04.592Z,95522.94
2022-12-18T13:45:31.839Z,95521.16
2022-12-18T13:47:59.452Z,95524.72
2022-12-18T13:50:30.975Z,95527.44
2022-12-18T13:53:02.691Z,95517.47
2022-12-18T13:55:30.286Z,95520.06
2022-12-18T13:57:57.866Z,95520.84
2022-12-18T14:00:25.476Z,95530.72
2022-12-18T14:02:53.218Z,95519.53
2022-12-18T14:05:20.686Z,95520.50
2022-12-18T14:07:51.884Z,95520.94
2022-12-18T14:10:42.214Z,95519.47
2022-12-18T14:13:06.560Z,95509.75
2022-12-18T14:15:35.181Z,95521.00
2022-12-18T14:18:02.767Z,95517.50
2022-12-18T14:20:29.348Z,95515.22
2022-12-18T14:22:57.934Z,95519.22
2022-12-18T14:25:25.517Z,95519.22
2022-12-18T14:27:53.113Z,95520.47
2022-12-18T14:30:20.715Z,95530.94
2022-12-18T14:32:48.297Z,95532.28
2022-12-18T14:35:14.897Z,95533.00
2022-12-18T14:37:41.489Z,95535.63
2022-12-18T14:40:11.520Z,95533.72
2022-12-18T14:42:38.717Z,95533.84
2022-12-18T14:45:13.855Z,95533.94
2022-12-18T14:47:41.980Z,95531.34
2022-12-18T14:50:09.499Z,95536.06
2022-12-18T14:52:36.077Z,95535.66
2022-12-18T14:55:02.664Z,95532.88
2022-12-18T14:57:29.263Z,95525.50
2022-12-18T14:59:55.872Z,95533.59
2022-12-18T15:02:23.647Z,95527.53
2022-12-18T15:04:51.045Z,95527.94
2022-12-18T15:07:17.606Z,95527.97
2022-12-18T15:09:46.231Z,95529.00
2022-12-18T15:12:12.815Z,95536.53
2022-12-18T15:14:40.463Z,95537.13
2022-12-18T15:17:07.980Z,95539.56
2022-12-18T15:19:35.672Z,95536.63
2022-12-18T15:22:06.317Z,95528.59
2022-12-18T15:24:33.891Z,95536.94
2022-12-18T15:27:01.507Z,95538.72
2022-12-18T15:29:28.128Z,95543.09
2022-12-18T15:31:55.669Z,95538.72
2022-12-18T15:34:22.275Z,95547.09
2022-12-18T15:36:49.839Z,95547.38
2022-12-18T15:39:17.438Z,95551.03
2022-12-18T15:41:45.025Z,95546.97
2022-12-18T15:44:12.640Z,95548.84
2022-12-18T15:46:40.283Z,95554.91
2022-12-18T15:49:08.803Z,95550.81
2022-12-18T15:51:37.477Z,95546.66
2022-12-18T15:54:05.008Z,95539.03
2022-12-18T15:56:32.614Z,95541.22
2022-12-18T15:59:00.199Z,95541.22
2022-12-18T16:01:27.948Z,95543.81
2022-12-18T16:03:56.775Z,95554.13
2022-12-18T16:06:24.034Z,95547.97
2022-12-18T16:08:51.553Z,95547.06
2022-12-18T16:11:18.151Z,95550.28
2022-12-18T16:13:47.017Z,95554.56
2022-12-18T16:16:13.575Z,95555.31
2022-12-18T16:18:40.054Z,95543.09
2022-12-18T16:21:07.501Z,95546.56
2022-12-18T16:23:34.098Z,95551.63
2022-12-18T16:26:00.725Z,95553.31
2022-12-18T16:28:28.274Z,95556.84
2022-12-18T16:30:55.940Z,95556.16
2022-12-18T16:33:23.464Z,95550.94
2022-12-18T16:35:50.057Z,95546.03
2022-12-18T16:38:16.649Z,95548.63
2022-12-18T16:40:44.255Z,95543.28
2022-12-18T16:43:10.829Z,95546.66
2022-12-18T16:45:37.445Z,95549.03
2022-12-18T16:48:04.040Z,95540.28
2022-12-18T16:50:31.651Z,95548.84
2022-12-18T16:52:59.214Z,95551.44
2022-12-18T16:55:26.179Z,95551.44
2022-12-18T16:57:54.406Z,95544.56
2022-12-18T17:00:21.019Z,95542.78
2022-12-18T17:02:47.808Z,95541.94
2022-12-18T17:05:15.266Z,95543.63
2022-12-18T17:07:41.857Z,95546.97
2022-12-18T17:10:09.431Z,95550.41
2022-12-18T17:12:37.021Z,95550.28
2022-12-18T17:15:04.627Z,95533.94
2022-12-18T17:17:31.234Z,95546.84
2022-12-18T17:19:58.794Z,95546.75
2022-12-18T17:22:26.379Z,95534.88
2022-12-18T17:24:52.979Z,95538.41
2022-12-18T17:27:20.600Z,95536.72
2022-12-18T17:29:48.799Z,95539.44
2022-12-18T17:32:15.641Z,95546.66
2022-12-18T17:34:42.055Z,95544.25
2022-12-18T17:37:08.926Z,95547.97
2022-12-18T17:39:35.548Z,95548.28
2022-12-18T17:42:03.120Z,95548.69
2022-12-18T17:44:31.709Z,95536.91
2022-12-18T17:46:58.326Z,95544.28
2022-12-18T17:49:25.931Z,95539.59
2022-12-18T17:51:53.588Z,95551.88
2022-12-18T17:54:21.113Z,95547.59
2022-12-18T17:56:49.709Z,95543.13
2022-12-18T17:59:17.305Z,95550.03
2022-12-18T18:01:45.626Z,95547.56
2022-12-18T18:04:13.654Z,95540.00
2022-12-18T18:06:41.075Z,95536.59
2022-12-18T18:09:11.171Z,95533.16
2022-12-18T18:11:44.278Z,95530.31
2022-12-18T18:14:11.890Z,95534.38
2022-12-18T18:16:40.562Z,95541.19
2022-12-18T18:19:08.091Z,95535.97
2022-12-18T18:21:34.707Z,95530.75
2022-12-18T18:24:02.301Z,95539.31
2022-12-18T18:26:28.876Z,95545.38
2022-12-18T18:28:57.506Z,95551.53
2022-12-18T18:31:25.165Z,95546.50
2022-12-18T18:33:52.671Z,95549.41
2022-12-18T18:36:19.287Z,95555.66
2022-12-18T18:38:48.523Z,95547.94
2022-12-18T18:41:15.467Z,95565.81
2022-12-18T18:43:43.379Z,95567.66
2022-12-18T18:46:10.705Z,95563.38
2022-12-18T18:48:38.238Z,95559.84
2022-12-18T18:51:06.865Z,95552.94
2022-12-18T18:53:34.680Z,95557.63
2022-12-18T18:56:37.391Z,95559.50
2022-12-18T18:58:48.470Z,95558.47
2022-12-18T19:01:15.442Z,95559.09
2022-12-18T19:03:43.315Z,95548.47
2022-12-18T19:06:10.500Z,95560.69
2022-12-18T19:08:38.323Z,95569.34
2022-12-18T19:11:05.697Z,95562.97
2022-12-18T19:13:32.292Z,95553.91
2022-12-18T19:15:58.912Z,95555.28
2022-12-18T19:18:26.493Z,95562.91
2022-12-18T19:20:54.102Z,95556.56
2022-12-18T19:23:21.673Z,95543.50
2022-12-18T19:25:50.781Z,95553.31
2022-12-18T19:28:26.896Z,95537.47
2022-12-18T19:30:58.975Z,95539.97
2022-12-18T19:33:42.236Z,95534.63
2022-12-18T19:36:09.758Z,95533.59
2022-12-18T19:38:37.476Z,95531.00
2022-12-18T19:41:04.930Z,95532.75
2022-12-18T19:43:32.526Z,95535.28
2022-12-18T19:45:59.221Z,95543.00
2022-12-18T19:48:26.693Z,95542.16
2022-12-18T19:50:53.612Z,95549.03
2022-12-18T19:53:20.917Z,95555.22
2022-12-18T19:55:48.507Z,95552.47
2022-12-18T19:58:17.087Z,95549.03
2022-12-18T20:00:43.990Z,95558.53
2022-12-18T20:03:22.367Z,95558.53
2022-12-18T20:05:53.945Z,95557.50
2022-12-18T20:08:22.547Z,95556.97
2022-12-18T20:10:50.128Z,95548.41
2022-12-18T20:13:17.721Z,95550.09
2022-12-18T20:15:46.361Z,95551.03
2022-12-18T20:18:12.937Z,95551.13
2022-12-18T20:20:39.548Z,95538.28
2022-12-18T20:23:07.147Z,95539.22
2022-12-18T20:25:34.763Z,95531.63
2022-12-18T20:28:01.328Z,95533.59
2022-12-18T20:30:27.928Z,95538.59
2022-12-18T20:32:55.508Z,95529.41
2022-12-18T20:35:23.110Z,95529.50
2022-12-18T20:37:50.915Z,95539.94
2022-12-18T20:40:19.327Z,95539.84
2022-12-18T20:42:46.930Z,95534.41
2022-12-18T20:45:13.525Z,95538.78
2022-12-18T20:47:40.117Z,95541.31
2022-12-18T20:50:06.721Z,95533.38
2022-12-18T20:52:33.300Z,95520.13
2022-12-18T20:55:01.880Z,95527.63
2022-12-18T20:57:28.494Z,95529.53
2022-12-18T20:59:56.078Z,95527.88
2022-12-18T21:02:23.133Z,95520.66
2022-12-18T21:04:50.275Z,95516.69
2022-12-18T21:07:16.874Z,95518.34
2022-12-18T21:09:43.450Z,95520.44
2022-12-18T21:12:10.398Z,95530.25
2022-12-18T21:14:41.635Z,95520.44
2022-12-18T21:17:08.299Z,95527.34
2022-12-18T21:19:35.836Z,95527.34
2022-12-18T21:22:03.422Z,95525.44
2022-12-18T21:24:32.950Z,95522.66
2022-12-18T21:27:00.657Z,95517.09
2022-12-18T21:29:28.247Z,95506.50
2022-12-18T21:31:55.042Z,95502.06
2022-12-18T21:34:28.974Z,95510.66
2022-12-18T21:36:56.074Z,95512.22
2022-12-18T21:39:22.632Z,95525.25
2022-12-18T21:41:50.240Z,95527.03
2022-12-18T21:44:19.868Z,95516.28
2022-12-18T21:46:51.350Z,95514.41
2022-12-18T21:49:22.088Z,95516.81
2022-12-18T21:51:48.659Z,95520.03
2022-12-18T21:54:15.263Z,95519.94
2022-12-18T21:56:42.844Z,95515.44
2022-12-18T21:59:09.434Z,95512.09
2022-12-18T22:01:37.049Z,95505.13
2022-12-18T22:04:04.673Z,95510.13
2022-12-18T22:06:32.210Z,95510.75
2022-12-18T22:08:58.806Z,95512.28
2022-12-18T22:11:25.393Z,95525.47
2022-12-18T22:13:52.994Z,95525.25
2022-12-18T22:16:19.573Z,95528.78
2022-12-18T22:18:46.073Z,95524.41
2022-12-18T22:21:12.771Z,95520.88
2022-12-18T22:23:39.360Z,95531.22
2022-12-18T22:26:06.933Z,95534.66
2022-12-18T22:28:33.531Z,95527.66
2022-12-18T22:31:00.039Z,95525.88
2022-12-18T22:33:27.742Z,95524.94
2022-12-18T22:35:55.317Z,95531.91
2022-12-18T22:38:21.915Z,95534.44
2022-12-18T22:40:48.482Z,95529.22
2022-12-18T22:43:16.074Z,95524.00
2022-12-18T22:45:42.660Z,95532.66
2022-12-18T22:48:10.264Z,95517.00
2022-12-18T22:50:37.841Z,95523.06
2022-12-18T22:53:04.435Z,95519.50
2022-12-18T22:55:32.033Z,95516.91
2022-12-18T22:57:59.609Z,95518.56
2022-12-18T23:00:26.275Z,95522.72
2022-12-18T23:02:59.996Z,95522.84
2022-12-18T23:05:28.434Z,95528.28
2022-12-18T23:07:56.009Z,95518.78
2022-12-18T23:10:22.590Z,95528.06
2022-12-18T23:12:49.200Z,95526.28
2022-12-18T23:15:16.789Z,95540.91
2022-12-18T23:17:47.870Z,95543.41
2022-12-18T23:20:15.016Z,95541.00
2022-12-18T23:22:41.579Z,95534.25
2022-12-18T23:25:08.180Z,95532.47
2022-12-18T23:27:35.779Z,95525.56
2022-12-18T23:30:02.374Z,95535.78
2022-12-18T23:32:28.960Z,95526.28
2022-12-18T23:34:56.549Z,95531.41
2022-12-18T23:37:57.082Z,95528.88
2022-12-18T23:40:10.819Z,95525.56
2022-12-18T23:42:37.407Z,95523.81
2022-12-18T23:45:07.474Z,95518.44
2022-12-18T23:47:44.642Z,95512.28
2022-12-18T23:50:14.245Z,95513.03
2022-12-18T23:52:41.834Z,95510.53
2022-12-18T23:55:09.456Z,95510.63
2022-12-18T23:57:36.061Z,95509.69
